ADDS TAF Data INFO
IDs: Format: Raw Decoded Include METARs

Data at: 1751 UTC 18 Nov 2017

KPUB 181653Z 00000KT 10SM CLR 04/M06 A3030 RMK AO2 SLP256 T00441061

KPUB 181730Z 1818/1918 VRB06KT P6SM SKC
  FM182100 12008KT P6SM SKC
  FM190100 VRB05KT P6SM SKC
  FM191600 VRB05KT P6SM BKN250